• Join FlightAware (Why Join?)
  • Login
  • US Flag 
12:56AM EDT


 

Airport Tracker/Info


-or-


 

Live Flight TrackerFlight Track Log ✈ SWA303 ✈ 16-Apr-2013 ✈ KDEN - KIAD

Flight Track Log - Related Links

Times and Time Zones

All times are in EDT time to prevent confusion due to time zone crossing. See the SWA303 flight status page for this flight to view local times or setup timezone preferences in your user account.

Time Position Orientation Groundspeed Altitude Reporting Facility
EDT Latitude Longitude Course Direction KTS MPH feet Rate Location/Type
02:30PM 39.8833 -104.6167 90° East 161 185 6,300  Level Denver TRACON
02:31PM 39.8833 -104.5500 90° East 207 238 8,000 1,560 Climbing Denver TRACON
02:32PM 39.8739 -104.3872 94° East 292 336 10,600 1,800 Climbing Denver Center
02:33PM 39.8739 -104.2575 90° East 356 410 12,900 2,580 Climbing Denver Center
02:34PM 39.8725 -104.1167 91° East 395 455 15,900 2,820 Climbing Denver Center
02:35PM 39.8717 -103.9533 90° East 423 487 18,800 2,820 Climbing Denver Center
02:36PM 39.8781 -103.7953 87° East 439 505 21,700 2,520 Climbing Denver Center
02:37PM 39.8944 -103.6425 82° East 437 503 24,000 2,220 Climbing Denver Center
02:38PM 39.9119 -103.4725 82° East 466 536 26,300 2,040 Climbing Denver Center
02:39PM 39.9200 -103.3000 86° East 473 544 28,200 1,740 Climbing Denver Center
02:41PM 39.9303 -103.1219 86° East 487 560 30,000 1,560 Climbing Denver Center
02:42PM 39.9381 -102.9397 87° East 497 572 31,500 1,440 Climbing Denver Center
02:43PM 39.9494 -102.7239 86° East 506 582 33,000 720 Climbing Denver Center
02:44PM 39.9569 -102.5508 87° East 506 582 33,000  Level Denver Center
02:45PM 39.9653 -102.3764 86° East 505 581 33,100 840 Climbing Denver Center
02:46PM 39.9744 -102.1733 87° East 504 580 34,800 1,560 Climbing Denver Center
02:47PM 39.9817 -101.9992 87° East 504 580 36,300 1,020 Climbing Denver Center
02:48PM 39.9894 -101.7964 87° East 503 579 37,000 300 Climbing Denver Center
02:49PM 39.9964 -101.6231 87° East 501 577 37,000  Level Denver Center
02:50PM 40.0042 -101.4203 87° East 505 581 37,000  Level Denver Center
02:51PM 40.0108 -101.2453 87° East 507 583 37,000  Level Denver Center
02:52PM 40.0169 -101.0703 87° East 508 585 37,000  Level Denver Center
02:53PM 40.0236 -100.8617 88° East 514 592 37,000  Level Denver Center
02:54PM 40.0292 -100.6828 88° East 518 596 37,000  Level Denver Center
02:55PM 40.0347 -100.4775 88° East 512 589 37,000  Level Denver Center
02:56PM 40.0394 -100.3008 88° East 512 589 37,000  Level Denver Center
02:57PM 40.0458 -100.0967 88° East 509 586 37,000  Level Denver Center
02:58PM 40.0489 -99.9236 89° East 502 578 37,000  Level Denver Center
02:59PM 40.0536 -99.7203 88° East 503 579 37,000  Level Denver Center
03:00PM 40.0578 -99.5450 88° East 504 580 37,000 300 Level Denver Center
03:01PM 40.0617 -99.3703 88° East 505 581 37,700 960 Climbing Denver Center
03:02PM 40.0650 -99.1633 89° East 508 585 39,000 600 Climbing Denver Center
03:03PM 40.0683 -98.9872 89° East 509 586 39,000  Level Denver Center
03:04PM 40.0708 -98.8364 89° East 508 585 39,000  Level Minneapolis Center
03:05PM 40.0722 -98.6528 89° East 506 582 39,000  Level Minneapolis Center
03:06PM 40.0744 -98.4706 89° East 506 582 39,000  Level Minneapolis Center
03:07PM 40.0758 -98.2894 89° East 503 579 39,000  Level Minneapolis Center
03:08PM 40.0789 -98.1094 89° East 501 577 39,000  Level Minneapolis Center
03:09PM 40.0792 -97.8933 90° East 499 574 39,000  Level Minneapolis Center
03:10PM 40.0811 -97.7111 89° East 500 575 39,000  Level Minneapolis Center
03:11PM 40.0814 -97.5303 90° East 501 577 39,000  Level Minneapolis Center
03:12PM 40.0825 -97.3100 90° East 503 579 39,000  Level Minneapolis Center
03:13PM 40.0817 -97.1269 90° East 504 580 39,000  Level Minneapolis Center
03:14PM 40.0814 -96.9414 90° East 507 583 39,000  Level Minneapolis Center
03:15PM 40.0792 -96.7517 91° East 516 594 39,000  Level Minneapolis Center
03:16PM 40.0792 -96.5283 90° East 516 594 39,000  Level Minneapolis Center
03:17PM 40.0792 -96.3464 90° East 509 586 39,000  Level Minneapolis Center
03:18PM 40.0772 -96.1600 91° East 512 589 39,000  Level Minneapolis Center
03:19PM 40.0753 -95.9742 91° East 514 592 39,000  Level Minneapolis Center
03:20PM 40.0733 -95.7883 91° East 515 593 39,000  Level Minneapolis Center
03:22PM 40.0722 -95.6050 90° East 510 587 39,000  Level Minneapolis Center
03:23PM 40.0686 -95.4236 91° East 505 581 39,000  Level Minneapolis Center
03:24PM 40.0644 -95.2117 91° East 504 580 39,000  Level Kansas City Center
03:25PM 40.0611 -95.0056 91° East 506 582 39,000  Level Kansas City Center
03:26PM 40.0578 -94.8353 91° East 494 568 39,000  Level Kansas City Center
03:27PM 40.0544 -94.6644 91° East 492 566 39,000  Level Kansas City Center
03:28PM 40.0508 -94.4636 91° East 494 568 39,000  Level Kansas City Center
03:29PM 40.0458 -94.2900 92° East 497 572 39,000  Level Kansas City Center
03:30PM 40.0408 -94.0856 92° East 501 577 39,000  Level Kansas City Center
03:31PM 40.0336 -93.9014 93° East 508 585 39,000  Level Kansas City Center
03:32PM 40.0281 -93.7206 92° East 506 582 39,000  Level Kansas City Center
03:33PM 40.0225 -93.5417 92° East 500 575 39,000  Level Kansas City Center
03:34PM 40.0189 -93.3639 91° East 496 571 39,000  Level Kansas City Center
03:35PM 40.0125 -93.1861 93° East 496 571 39,000  Level Kansas City Center
03:36PM 40.0056 -92.9728 92° East 496 571 39,000  Level Kansas City Center
03:37PM 39.9989 -92.7983 93° East 491 565 39,000  Level Kansas City Center
03:38PM 39.9928 -92.6239 93° East 493 567 39,000  Level Kansas City Center
03:39PM 39.9858 -92.4500 93° East 492 566 39,000  Level Kansas City Center
03:40PM 39.9775 -92.2431 93° East 487 560 39,000  Level Kansas City Center
03:41PM 39.9697 -92.0675 93° East 489 563 39,000  Level Kansas City Center
03:42PM 39.9614 -91.8922 93° East 489 563 39,000  Level Kansas City Center
03:43PM 39.9539 -91.7150 93° East 493 567 39,000  Level Kansas City Center
03:44PM 39.9447 -91.5375 94° East 494 568 39,000  Level Kansas City Center
03:45PM 39.9347 -91.3239 93° East 497 572 39,000  Level Kansas City Center
03:46PM 39.9244 -91.1453 94° East 498 573 39,000  Level Kansas City Center
03:47PM 39.9161 -90.9658 93° East 500 575 39,000  Level Kansas City Center
03:48PM 39.9069 -90.7992 94° East 498 573 39,000  Level Kansas City Center
03:49PM 39.8942 -90.5819 94° East 502 578 39,000  Level Kansas City Center
03:50PM 39.8842 -90.4025 94° East 501 577 39,000  Level Kansas City Center
03:52PM 39.8739 -90.2244 94° East 499 574 39,000  Level Kansas City Center
03:53PM 39.8628 -90.0469 95° East 497 572 39,000  Level Kansas City Center
03:54PM 39.8514 -89.8692 95° East 496 571 39,000  Level Kansas City Center
03:55PM 39.8400 -89.6917 95° East 495 570 39,000  Level Kansas City Center
03:56PM 39.8408 -89.4769 90° East 496 571 39,000  Level Kansas City Center
03:57PM 39.8408 -89.3000 90° East 495 570 39,000  Level Kansas City Center
03:58PM 39.8414 -89.1225 90° East 493 567 39,000  Level Kansas City Center
03:59PM 39.8422 -88.9450 90° East 493 567 39,000  Level Kansas City Center
04:00PM 39.8419 -88.7667 90° East 494 568 39,000  Level Kansas City Center
04:01PM 39.8422 -88.5867 90° East 497 572 39,000  Level Kansas City Center
04:02PM 39.8419 -88.3700 90° East 501 577 39,000  Level Kansas City Center
04:03PM 39.8431 -88.1883 89° East 503 579 39,000  Level Kansas City Center
04:04PM 39.8403 -87.9894 91° East 502 578 39,000  Level Kansas City Center
04:05PM 39.8372 -87.8472 92° East 501 577 39,000  Level Indianapolis Center
04:06PM 39.8353 -87.6631 91° East 503 579 39,000  Level Indianapolis Center
04:07PM 39.8328 -87.4800 91° East 503 579 39,000  Level Indianapolis Center
04:08PM 39.8308 -87.2942 91° East 507 583 39,000  Level Indianapolis Center
04:09PM 39.8283 -87.1108 91° East 506 582 39,000  Level Indianapolis Center
04:10PM 39.8239 -86.8889 91° East 508 585 39,000  Level Indianapolis Center
04:11PM 39.8206 -86.7044 91° East 508 585 39,000  Level Indianapolis Center
04:12PM 39.8169 -86.5211 91° East 506 582 39,000  Level Indianapolis Center
04:13PM 39.8150 -86.3378 91° East 504 580 39,000  Level Indianapolis Center
04:14PM 39.8275 -86.1567 85° East 502 578 39,000  Level Indianapolis Center
04:15PM 39.8369 -85.9739 86° East 503 579 39,000  Level Indianapolis Center
04:16PM 39.8492 -85.7744 85° East 504 580 39,100 300 Climbing Indianapolis Center
04:17PM 39.8586 -85.5842 86° East 517 595 39,700 600 Climbing Indianapolis Center
04:18PM 39.8744 -85.3953 84° East 520 598 40,400 540 Climbing Indianapolis Center
04:19PM 39.8958 -85.2097 81° East 515 593 40,900 240 Climbing Indianapolis Center
04:20PM 39.9125 -85.0239 83° East 513 590 41,000  Climbing Indianapolis Center
04:21PM 39.9256 -84.8356 85° East 517 595 41,000  Level Indianapolis Center
04:22PM 39.9294 -84.6489 88° East 513 590 41,000  Level Indianapolis Center
04:23PM 39.9389 -84.4617 86° East 513 590 41,000  Level Indianapolis Center
04:24PM 39.9442 -84.2758 88° East 511 588 41,000  Level Indianapolis Center
04:25PM 39.9533 -84.0589 87° East 508 585 41,000  Level Indianapolis Center
04:26PM 39.9589 -83.8719 88° East 510 587 41,000  Level Indianapolis Center
04:27PM 39.9650 -83.6864 87° East 506 582 41,000  Level Indianapolis Center
04:28PM 39.9728 -83.4950 87° East 512 589 41,000  Level Indianapolis Center
04:29PM 39.9769 -83.3017 88° East 515 593 41,000  Level Indianapolis Center
04:30PM 39.9808 -83.1125 88° East 514 592 41,000  Level Indianapolis Center
04:31PM 39.9853 -82.9244 88° East 514 592 41,000  Level Indianapolis Center
04:33PM 39.9906 -82.7369 88° East 512 589 41,000  Level Indianapolis Center
04:34PM 39.9942 -82.5497 88° East 512 589 41,000  Level Indianapolis Center
04:35PM 39.9975 -82.3633 89° East 511 588 41,000  Level Indianapolis Center
04:36PM 40.0000 -82.1767 89° East 510 587 41,000  Level Indianapolis Center
04:37PM 40.0039 -81.9906 88° East 510 587 41,000  Level Indianapolis Center
04:38PM 40.0072 -81.8053 89° East 507 583 41,000  Level Indianapolis Center
04:39PM 40.0081 -81.6125 90° East 506 582 41,000  Level Indianapolis Center
04:40PM 39.9722 -81.4331 105° East 511 588 41,000 -120 Level Indianapolis Center
04:41PM 39.9225 -81.2397 108° East 508 585 40,800 -540 Descending Indianapolis Center
04:42PM 39.8908 -81.1081 107° East 500 575 40,100 -960 Descending Cleveland Center
04:43PM 39.8456 -80.9292 108° East 505 581 39,100 -960 Descending Cleveland Center
04:44PM 39.8003 -80.7533 108° East 505 581 38,200 -960 Descending Cleveland Center
04:45PM 39.7525 -80.5858 110° East 505 581 37,200 -600 Descending Cleveland Center
04:46PM 39.7086 -80.4158 109° East 500 575 37,000 -120 Descending Cleveland Center
04:47PM 39.6644 -80.2486 109° East 495 570 37,000 -1,200 Level Cleveland Center
04:48PM 39.6200 -80.0844 109° East 488 562 34,700 -2,940 Descending Cleveland Center
04:48PM 39.5886 -79.9647 109° East 484 557 32,000 -3,780 Descending Washington Center
04:49PM 39.5486 -79.7956 107° East 489 563 28,300 -2,520 Descending Washington Center
04:50PM 39.5172 -79.6189 103° East 494 568 27,000 -660 Descending Washington Center
04:51PM 39.4853 -79.4450 103° East 494 568 27,000 -600 Level Washington Center
04:52PM 39.4592 -79.2875 102° East 477 549 25,800 -1,020 Descending Washington Center
04:53PM 39.4306 -79.1303 103° East 458 527 25,000 -420 Descending Washington Center
04:54PM 39.4014 -78.9811 104° East 438 504 25,000 -1,560 Level Washington Center
04:55PM 39.3664 -78.8131 105° East 438 504 22,000 -3,840 Descending Washington Center
04:56PM 39.3372 -78.6561 103° East 438 504 17,500 -4,200 Descending Washington Center
04:57PM 39.3117 -78.5047 102° East 438 504 13,600 -3,000 Descending Washington Center
04:58PM 39.2817 -78.3614 105° East 421 484 11,600 -1,440 Descending Washington Center
04:59PM 39.2361 -78.2606 120° Southeast 350 403 10,800 -960 Descending Washington Center
05:00PM 39.2239 -78.1503 98° East 317 365 9,700 -1,620 Descending Washington Center
05:01PM 39.2367 -78.0408 81° East 296 341 7,600 -1,740 Descending Washington Center
05:02PM 39.2492 -77.9342 81° East 296 341 6,300 -1,260 Descending Washington Center
05:03PM 39.2594 -77.8297 83° East 296 341 5,100 -660 Descending Washington Center
05:04PM 39.2656 -77.7308 85° East 284 327 5,000 -180 Descending Washington Center
05:05PM 39.2547 -77.6339 98° East 272 313 4,800 -660 Descending Washington Center
05:06PM 39.2500 -77.5667 95° East 273 314 4,000 -540 Descending Potomac TRACON
05:07PM 39.2167 -77.5000 123° Southeast 258 297 4,000 -600 Level Potomac TRACON
05:09PM 39.0034 -77.4682 163° South  Level Estimated
05:10PM 39.0500 -77.4667 163° South 179 206 1,700  Level Potomac TRACON
05:11PM 39.0000 -77.4667 180° South 136 157 1,000 -720 Descending Potomac TRACON
05:13PM 38.9474 -77.4599 165° South  Level Estimated
05:20PM 38.9474 -77.4599 165° South  Level Estimated
05:21PM 38.9474 -77.4599 165° South  Level Estimated